Time;durP1;ratioP1;P1;durP2;ratioP2;P2;SDS_P1;SDS_P2;PMS_P1;PMS_P2;Temp;Humidity;BMP_temperature;BMP_pressure;BME280_temperature;BME280_humidity;BME280_pressure;Samples;Min_cycle;Max_cycle;Signal;HPM_P1;HPM_P2
2022/10/06 00:00:38;;;;;;;2.28;1.70;;;14.10;99.90;;;;;;4956779;29;20398;-84
2022/10/06 00:03:04;;;;;;;2.15;1.30;;;14.00;99.90;;;;;;4956987;29;20138;-84
2022/10/06 00:05:31;;;;;;;7.28;1.73;;;14.00;99.90;;;;;;4946464;29;20080;-84
2022/10/06 00:07:59;;;;;;;3.35;1.65;;;13.90;99.90;;;;;;4945406;29;20433;-85
2022/10/06 00:10:26;;;;;;;4.55;1.75;;;13.90;99.90;;;;;;4947243;29;20044;-84
2022/10/06 00:12:53;;;;;;;4.32;1.60;;;13.90;99.90;;;;;;4955511;29;20088;-84
2022/10/06 00:15:23;;;;;;;2.65;1.33;;;13.90;99.90;;;;;;4955419;28;20078;-84
2022/10/06 00:17:50;;;;;;;6.80;1.77;;;13.90;99.90;;;;;;4953443;29;20048;-85
2022/10/06 00:20:18;;;;;;;5.50;1.85;;;13.90;99.90;;;;;;4956428;28;20058;-85
2022/10/06 00:22:47;;;;;;;5.38;2.25;;;13.80;99.90;;;;;;4956587;28;20047;-84
2022/10/06 00:25:18;;;;;;;6.20;1.85;;;13.90;99.90;;;;;;4952454;29;20048;-84
2022/10/06 00:27:47;;;;;;;3.47;1.42;;;13.80;99.90;;;;;;4958084;29;20519;-84
2022/10/06 00:30:17;;;;;;;4.97;1.50;;;13.80;99.90;;;;;;4953899;29;20087;-84
2022/10/06 00:32:56;;;;;;;2.40;1.40;;;13.80;99.90;;;;;;4954200;29;20051;-84
2022/10/06 00:35:24;;;;;;;4.35;1.58;;;13.80;99.90;;;;;;4954687;29;20191;-84
2022/10/06 00:37:51;;;;;;;5.50;1.70;;;13.80;99.90;;;;;;4957743;29;20048;-83
2022/10/06 00:40:19;;;;;;;4.28;1.70;;;13.70;99.90;;;;;;4949078;28;20263;-84
2022/10/06 00:43:04;;;;;;;2.45;1.30;;;13.70;99.90;;;;;;4956627;29;20047;-84
2022/10/06 00:45:44;;;;;;;5.07;1.80;;;13.70;99.90;;;;;;4952273;29;20076;-84
2022/10/06 00:48:21;;;;;;;5.25;1.63;;;13.70;99.90;;;;;;4951549;29;20139;-86
2022/10/06 00:50:48;;;;;;;5.18;1.90;;;13.70;99.90;;;;;;4952695;29;20485;-84
2022/10/06 00:53:15;;;;;;;8.98;2.13;;;13.70;99.90;;;;;;4943157;29;20126;-85
2022/10/06 00:55:42;;;;;;;3.58;1.60;;;13.70;99.90;;;;;;4943709;29;20056;-84
2022/10/06 00:58:09;;;;;;;3.38;1.85;;;13.60;99.90;;;;;;4951684;29;20059;-85
2022/10/06 01:00:37;;;;;;;4.25;1.85;;;13.70;99.90;;;;;;4944935;29;20066;-84
2022/10/06 01:03:12;;;;;;;3.60;1.40;;;13.60;99.90;;;;;;4954890;29;20440;-84
2022/10/06 01:05:43;;;;;;;3.55;1.60;;;13.60;99.90;;;;;;4952108;28;20155;-84
2022/10/06 01:08:10;;;;;;;8.25;2.03;;;13.70;99.90;;;;;;4950019;29;20143;-84
2022/10/06 01:10:37;;;;;;;5.13;1.70;;;13.70;99.90;;;;;;4947062;29;20048;-85
2022/10/06 01:13:05;;;;;;;12.00;2.13;;;13.70;99.90;;;;;;4947567;28;20416;-84
2022/10/06 01:15:36;;;;;;;3.22;1.67;;;13.60;99.90;;;;;;4953380;29;20055;-85
2022/10/06 01:18:12;;;;;;;4.72;2.10;;;13.60;99.90;;;;;;4951576;29;20044;-84
2022/10/06 01:21:13;;;;;;;3.58;1.50;;;13.70;99.90;;;;;;4946576;29;20051;-84
2022/10/06 01:23:39;;;;;;;2.38;1.80;;;13.70;99.90;;;;;;4945151;29;20134;-82
2022/10/06 01:26:09;;;;;;;5.50;2.00;;;13.80;99.90;;;;;;4955478;29;20078;-84
2022/10/06 01:28:38;;;;;;;2.75;1.38;;;13.70;99.90;;;;;;4950051;28;20139;-84
2022/10/06 01:31:07;;;;;;;4.15;1.67;;;13.80;99.90;;;;;;4951280;29;20051;-84
2022/10/06 01:33:33;;;;;;;3.95;1.80;;;13.80;99.90;;;;;;4947976;29;20067;-84
2022/10/06 01:36:00;;;;;;;4.38;1.65;;;13.80;99.90;;;;;;4947922;29;20052;-84
2022/10/06 01:38:27;;;;;;;5.40;1.40;;;13.90;99.90;;;;;;4952405;29;20053;-85
2022/10/06 01:40:54;;;;;;;3.22;1.77;;;13.90;99.90;;;;;;4948706;28;20047;-84
2022/10/06 01:43:21;;;;;;;3.33;2.00;;;13.90;99.90;;;;;;4947125;29;20111;-84
2022/10/06 01:45:55;;;;;;;3.30;1.65;;;13.90;99.90;;;;;;4950394;29;20066;-85
2022/10/06 01:48:22;;;;;;;6.13;1.98;;;13.90;99.90;;;;;;4950904;29;20051;-84
2022/10/06 01:50:49;;;;;;;4.10;1.48;;;14.00;99.90;;;;;;4949077;29;20051;-84
2022/10/06 01:53:16;;;;;;;4.65;1.80;;;14.00;99.90;;;;;;4945108;29;20581;-84
2022/10/06 01:55:43;;;;;;;4.97;1.27;;;14.10;99.90;;;;;;4948030;29;20110;-84
2022/10/06 01:58:10;;;;;;;4.18;1.92;;;14.20;99.90;;;;;;4947147;29;20075;-84
2022/10/06 02:00:38;;;;;;;2.58;2.10;;;14.30;99.90;;;;;;4946700;29;20051;-83
2022/10/06 02:03:05;;;;;;;2.35;1.48;;;14.20;99.90;;;;;;4942573;29;20520;-85
2022/10/06 02:05:32;;;;;;;2.78;1.92;;;14.30;99.90;;;;;;4948048;29;20047;-84
2022/10/06 02:08:01;;;;;;;6.65;2.17;;;14.40;99.90;;;;;;4948124;29;20051;-83
2022/10/06 02:10:28;;;;;;;4.55;1.60;;;14.50;99.90;;;;;;4943631;29;20055;-84
2022/10/06 02:12:54;;;;;;;2.75;1.48;;;14.50;99.90;;;;;;4941135;28;20421;-84
2022/10/06 02:15:21;;;;;;;4.25;1.60;;;14.60;99.90;;;;;;4944251;29;20051;-85
2022/10/06 02:17:48;;;;;;;7.03;2.50;;;14.60;99.90;;;;;;4949493;29;20527;-84
2022/10/06 02:20:15;;;;;;;3.60;1.95;;;14.70;99.90;;;;;;4947723;28;20051;-84
2022/10/06 02:22:42;;;;;;;3.13;1.92;;;14.70;99.90;;;;;;4942430;29;20061;-84
2022/10/06 02:25:13;;;;;;;4.15;1.83;;;14.80;99.90;;;;;;4937011;29;20083;-84
2022/10/06 02:27:40;;;;;;;6.22;2.03;;;14.90;99.90;;;;;;4945826;29;20052;-84
2022/10/06 02:30:08;;;;;;;3.22;1.80;;;14.90;99.90;;;;;;4947223;29;20047;-85
2022/10/06 02:32:41;;;;;;;5.50;1.88;;;14.90;99.90;;;;;;4949264;29;20057;-84
2022/10/06 02:35:10;;;;;;;8.10;1.85;;;15.00;99.90;;;;;;4940908;29;20058;-84
2022/10/06 02:37:36;;;;;;;5.78;2.22;;;14.80;99.90;;;;;;4939330;29;20403;-85
2022/10/06 02:40:04;;;;;;;6.85;1.80;;;15.00;99.90;;;;;;4945138;29;20058;-84
2022/10/06 02:42:30;;;;;;;5.30;1.88;;;15.00;99.90;;;;;;4949447;29;20058;-86
2022/10/06 02:44:57;;;;;;;4.78;1.65;;;15.00;99.90;;;;;;4949474;29;20063;-84
2022/10/06 02:47:24;;;;;;;5.95;1.83;;;15.00;99.90;;;;;;4946424;29;20048;-83
2022/10/06 02:49:51;;;;;;;4.30;2.08;;;15.00;99.90;;;;;;4950279;29;20057;-84
2022/10/06 02:52:17;;;;;;;7.00;2.13;;;15.00;99.90;;;;;;4947117;29;20047;-84
2022/10/06 02:54:45;;;;;;;3.40;1.90;;;15.00;99.90;;;;;;4948023;29;20087;-84
2022/10/06 02:57:14;;;;;;;3.72;1.77;;;15.00;99.90;;;;;;4941584;29;20051;-85
2022/10/06 02:59:41;;;;;;;3.20;2.03;;;15.00;99.90;;;;;;4939801;29;20055;-83
2022/10/06 03:02:08;;;;;;;5.40;1.80;;;15.10;99.90;;;;;;4939349;29;20056;-84
2022/10/06 03:04:35;;;;;;;6.85;1.92;;;15.00;99.90;;;;;;4943407;28;20517;-84
2022/10/06 03:07:02;;;;;;;5.35;2.05;;;15.10;99.90;;;;;;4939191;29;20436;-84
2022/10/06 03:09:28;;;;;;;4.20;1.77;;;15.10;99.90;;;;;;4948305;29;20047;-84
2022/10/06 03:11:55;;;;;;;4.15;2.03;;;15.10;99.90;;;;;;4946025;29;20054;-84
2022/10/06 03:14:22;;;;;;;5.22;2.20;;;15.10;99.90;;;;;;4946272;29;20577;-85
2022/10/06 03:16:50;;;;;;;5.65;2.25;;;15.10;99.90;;;;;;4946698;29;21118;-84
2022/10/06 03:19:17;;;;;;;2.97;1.52;;;15.10;99.90;;;;;;4948898;29;20069;-84
2022/10/06 03:21:44;;;;;;;5.15;2.25;;;15.10;99.90;;;;;;4946747;29;20051;-84
2022/10/06 03:24:11;;;;;;;5.95;2.35;;;15.10;99.90;;;;;;4943274;29;20055;-84
2022/10/06 03:26:40;;;;;;;3.92;2.20;;;15.10;99.90;;;;;;4946916;29;20058;-84
2022/10/06 03:29:08;;;;;;;4.53;2.10;;;15.00;99.90;;;;;;4943011;29;20409;-86
2022/10/06 03:31:38;;;;;;;4.35;2.10;;;15.10;99.90;;;;;;4953518;29;20051;-86
2022/10/06 03:34:05;;;;;;;5.97;2.03;;;15.10;99.90;;;;;;4948366;28;20099;-85
2022/10/06 03:36:33;;;;;;;5.53;1.73;;;15.10;99.90;;;;;;4949880;29;20056;-84
2022/10/06 03:39:01;;;;;;;5.13;2.08;;;15.10;99.90;;;;;;4952647;29;20060;-85
2022/10/06 03:41:30;;;;;;;4.35;2.35;;;15.10;99.90;;;;;;4953963;28;20080;-84
2022/10/06 03:43:58;;;;;;;5.53;1.73;;;15.10;99.90;;;;;;4951451;29;20115;-84
2022/10/06 03:46:28;;;;;;;3.95;1.80;;;15.10;99.90;;;;;;4953790;29;20061;-83
2022/10/06 03:48:56;;;;;;;3.55;1.75;;;15.10;99.90;;;;;;4940345;29;20506;-84
2022/10/06 03:51:26;;;;;;;3.80;1.90;;;15.10;99.90;;;;;;4940791;29;20059;-84
2022/10/06 03:53:53;;;;;;;7.20;2.40;;;15.10;99.90;;;;;;4945943;29;20143;-84
2022/10/06 03:56:27;;;;;;;6.28;2.72;;;15.20;99.90;;;;;;4942535;29;20050;-83
2022/10/06 03:58:56;;;;;;;7.07;2.67;;;15.10;99.90;;;;;;4947149;29;20048;-84
2022/10/06 04:01:24;;;;;;;6.83;2.57;;;15.10;99.90;;;;;;4954047;29;20051;-84
2022/10/06 04:03:54;;;;;;;7.95;1.90;;;15.10;99.90;;;;;;4954677;29;20047;-84
2022/10/06 04:06:21;;;;;;;5.68;2.28;;;15.10;99.90;;;;;;4954427;28;20051;-86
2022/10/06 04:08:50;;;;;;;4.13;1.95;;;15.10;99.90;;;;;;4950329;29;20476;-84
2022/10/06 04:11:19;;;;;;;4.78;3.05;;;15.10;99.90;;;;;;4959086;29;20047;-84
2022/10/06 04:13:50;;;;;;;7.57;2.22;;;15.10;99.90;;;;;;4959611;28;20516;-84
2022/10/06 04:16:21;;;;;;;5.72;3.00;;;15.10;99.90;;;;;;4951713;29;20054;-84
2022/10/06 04:18:53;;;;;;;4.57;2.47;;;15.00;99.90;;;;;;4952429;29;20052;-84
2022/10/06 04:21:22;;;;;;;3.50;2.30;;;15.10;99.90;;;;;;4949110;29;20047;-85
2022/10/06 04:24:00;;;;;;;4.25;2.10;;;15.10;99.90;;;;;;4953912;29;20146;-83
2022/10/06 04:26:29;;;;;;;7.30;2.42;;;15.10;99.90;;;;;;4948771;29;20103;-85
2022/10/06 04:28:57;;;;;;;7.82;2.83;;;15.20;99.90;;;;;;4954162;28;20043;-84
2022/10/06 04:31:28;;;;;;;4.75;2.50;;;15.20;99.90;;;;;;4945918;29;20058;-84
2022/10/06 04:33:57;;;;;;;5.20;2.28;;;15.30;99.90;;;;;;4951888;28;20497;-84
2022/10/06 04:36:30;;;;;;;5.63;2.00;;;15.30;99.90;;;;;;4953183;29;20149;-83
2022/10/06 04:38:59;;;;;;;5.63;2.40;;;15.30;99.90;;;;;;4953030;29;20050;-85
2022/10/06 04:41:28;;;;;;;6.20;2.67;;;15.40;99.90;;;;;;4954418;29;20044;-85
2022/10/06 04:43:54;;;;;;;6.10;2.20;;;15.50;99.90;;;;;;4962837;28;20060;-85
2022/10/06 04:46:22;;;;;;;7.32;2.28;;;15.40;99.90;;;;;;4956320;29;20048;-83
2022/10/06 04:49:09;;;;;;;5.15;2.60;;;15.50;99.90;;;;;;4951183;29;20055;-83
2022/10/06 04:51:43;;;;;;;6.45;2.60;;;15.50;99.90;;;;;;4951758;29;20055;-84
2022/10/06 04:54:10;;;;;;;3.70;2.05;;;15.50;99.90;;;;;;4949217;29;20056;-85
2022/10/06 04:56:36;;;;;;;5.32;2.47;;;15.50;99.90;;;;;;4952087;29;20058;-85
2022/10/06 04:59:03;;;;;;;5.25;2.33;;;15.50;99.90;;;;;;4952871;29;20058;-85
2022/10/06 05:01:32;;;;;;;6.38;2.40;;;15.50;99.90;;;;;;4949389;29;20048;-84
2022/10/06 05:04:01;;;;;;;3.28;2.65;;;15.50;99.90;;;;;;4953622;29;20588;-85
2022/10/06 05:06:33;;;;;;;6.68;2.92;;;15.50;99.90;;;;;;4939118;29;20074;-84
2022/10/06 05:09:08;;;;;;;4.93;2.38;;;15.50;99.90;;;;;;4940551;29;20055;-84
2022/10/06 05:11:35;;;;;;;6.88;2.88;;;15.40;99.90;;;;;;4940248;29;20068;-85
2022/10/06 05:14:01;;;;;;;4.18;2.13;;;15.40;99.90;;;;;;4946147;29;20523;-84
2022/10/06 05:16:29;;;;;;;4.70;2.33;;;15.40;99.90;;;;;;4955412;29;20058;-84
2022/10/06 05:18:57;;;;;;;5.15;2.25;;;15.40;99.90;;;;;;4951456;28;20052;-84
2022/10/06 05:21:29;;;;;;;3.30;2.00;;;15.30;99.90;;;;;;4945618;29;20130;-85
2022/10/06 05:23:56;;;;;;;8.60;2.78;;;15.20;99.90;;;;;;4949844;28;20603;-83
2022/10/06 05:26:27;;;;;;;5.40;2.35;;;15.30;99.90;;;;;;4954450;29;20113;-83
2022/10/06 05:28:54;;;;;;;3.55;2.35;;;15.20;99.90;;;;;;4949845;28;20071;-86
2022/10/06 05:31:28;;;;;;;9.60;2.60;;;15.20;99.90;;;;;;4947512;29;20047;-84
2022/10/06 05:33:56;;;;;;;5.88;2.45;;;15.20;99.90;;;;;;4953297;29;20043;-85
2022/10/06 05:36:28;;;;;;;4.70;2.42;;;15.30;99.90;;;;;;4951250;29;20090;-84
2022/10/06 05:38:57;;;;;;;7.10;2.60;;;15.30;99.90;;;;;;4952333;29;20055;-84
2022/10/06 05:41:31;;;;;;;6.28;2.13;;;15.30;99.90;;;;;;4953428;29;20055;-84
2022/10/06 05:43:58;;;;;;;7.57;2.00;;;15.30;99.90;;;;;;4949142;29;20112;-85
2022/10/06 05:46:30;;;;;;;7.85;2.42;;;15.30;99.90;;;;;;4957513;29;20520;-84
2022/10/06 05:49:00;;;;;;;4.10;2.30;;;15.30;99.90;;;;;;4962202;28;20054;-85
2022/10/06 05:51:29;;;;;;;21.60;2.67;;;15.40;99.90;;;;;;4953886;28;20098;-86
2022/10/06 05:53:57;;;;;;;;;;;15.40;99.90;;;;;;4955697;29;20047;-86
2022/10/06 05:56:26;;;;;;;4.13;2.50;;;15.40;99.90;;;;;;4957251;29;20312;-82
2022/10/06 05:58:54;;;;;;;6.68;2.55;;;15.40;99.90;;;;;;4955777;28;20051;-85
2022/10/06 06:01:30;;;;;;;4.38;2.20;;;15.40;99.90;;;;;;4953239;29;20110;-87
2022/10/06 06:04:00;;;;;;;4.35;2.53;;;15.40;99.90;;;;;;4954256;29;20114;-85
2022/10/06 06:06:30;;;;;;;5.97;2.30;;;15.40;99.90;;;;;;4957293;29;20079;-84
2022/10/06 06:09:05;;;;;;;6.80;2.60;;;15.50;99.90;;;;;;4952700;29;20051;-85
2022/10/06 06:11:34;;;;;;;8.25;2.88;;;15.50;99.90;;;;;;4963301;29;20057;-88
2022/10/06 06:14:03;;;;;;;4.35;2.67;;;15.50;99.90;;;;;;4967312;29;20043;-84
2022/10/06 06:16:30;;;;;;;6.97;2.67;;;15.50;99.90;;;;;;4968469;29;20058;-86
2022/10/06 06:18:59;;;;;;;6.43;2.22;;;15.50;99.90;;;;;;4968797;29;20109;-86
2022/10/06 06:21:26;;;;;;;6.75;2.20;;;15.50;99.90;;;;;;4963127;29;20079;-87
2022/10/06 06:23:53;;;;;;;5.70;3.58;;;15.60;99.90;;;;;;4964642;29;20047;-86
2022/10/06 06:26:24;;;;;;;3.75;2.50;;;15.60;99.90;;;;;;4952329;29;20119;-85
2022/10/06 06:28:53;;;;;;;6.75;3.38;;;15.60;99.90;;;;;;4965879;29;20043;-85
2022/10/06 06:31:28;;;;;;;15.18;3.83;;;15.60;99.90;;;;;;4961075;29;20513;-85
2022/10/06 06:33:57;;;;;;;6.85;3.47;;;15.70;99.90;;;;;;4961727;29;20081;-86
2022/10/06 06:36:26;;;;;;;12.02;3.13;;;15.70;99.90;;;;;;4961268;28;20103;-85
2022/10/06 06:38:55;;;;;;;5.78;2.92;;;15.70;99.90;;;;;;4949265;29;20059;-84
2022/10/06 06:41:24;;;;;;;6.72;2.70;;;15.80;99.90;;;;;;4947586;29;20057;-84
2022/10/06 06:43:51;;;;;;;6.75;2.95;;;15.80;99.90;;;;;;4946224;29;20063;-86
2022/10/06 06:46:20;;;;;;;6.85;3.00;;;15.80;99.90;;;;;;4953460;29;20086;-85
2022/10/06 06:48:49;;;;;;;4.25;2.40;;;15.80;99.90;;;;;;4945921;28;20103;-85
2022/10/06 06:51:16;;;;;;;5.72;2.55;;;15.80;99.90;;;;;;4947998;29;20056;-82
2022/10/06 06:53:42;;;;;;;7.10;2.17;;;15.90;99.90;;;;;;4947621;29;20524;-85
2022/10/06 06:56:09;;;;;;;5.80;2.60;;;15.90;99.90;;;;;;4940441;29;20043;-84
2022/10/06 06:58:36;;;;;;;7.15;2.50;;;15.90;99.90;;;;;;4949972;29;20061;-85
2022/10/06 07:01:05;;;;;;;6.90;3.67;;;15.90;99.90;;;;;;4949801;29;20083;-84
2022/10/06 07:03:31;;;;;;;8.25;2.92;;;15.90;99.90;;;;;;4942604;29;20051;-85
2022/10/06 07:06:20;;;;;;;9.00;2.83;;;15.90;99.90;;;;;;4939778;29;20586;-85
2022/10/06 07:08:53;;;;;;;6.25;2.95;;;16.00;99.90;;;;;;4948779;29;20130;-85
2022/10/06 07:11:29;;;;;;;5.05;2.63;;;16.00;99.90;;;;;;4943590;29;20048;-85
2022/10/06 07:14:00;;;;;;;3.88;2.60;;;16.10;99.90;;;;;;4950443;29;20054;-85
2022/10/06 07:25:11;;;;;;;8.38;2.88;;;16.40;99.90;;;;;;4947485;29;20051;-84
2022/10/06 07:27:44;;;;;;;7.43;3.42;;;16.40;99.90;;;;;;4950438;29;20047;-84
2022/10/06 07:30:16;;;;;;;6.15;3.08;;;16.40;99.90;;;;;;4941224;29;20138;-84
2022/10/06 07:32:48;;;;;;;5.75;2.80;;;16.30;99.90;;;;;;4941719;29;20054;-84
2022/10/06 07:35:19;;;;;;;8.20;3.13;;;16.40;99.90;;;;;;4951172;29;20056;-84
2022/10/06 07:37:46;;;;;;;;;;;16.30;99.90;;;;;;4951475;29;20048;-84
2022/10/06 07:40:13;;;;;;;5.65;3.25;;;16.30;99.90;;;;;;4959174;29;19922;-84
2022/10/06 07:42:47;;;;;;;5.97;2.90;;;16.30;99.90;;;;;;4951714;29;20059;-84
2022/10/06 07:45:37;;;;;;;9.82;3.40;;;16.30;99.90;;;;;;4949299;29;20062;-83
2022/10/06 07:48:05;;;;;;;;;;;16.30;99.90;;;;;;4950738;29;20512;-83
2022/10/06 07:50:32;;;;;;;6.65;3.38;;;16.30;99.90;;;;;;4946894;29;20005;-84
2022/10/06 07:53:06;;;;;;;8.32;3.20;;;16.30;99.90;;;;;;4951586;29;20043;-83
2022/10/06 07:55:35;;;;;;;6.70;3.45;;;16.30;99.90;;;;;;4948848;29;20416;-84
2022/10/06 07:58:01;;;;;;;12.85;4.03;;;16.30;99.90;;;;;;4944344;29;20055;-83
2022/10/06 08:00:28;;;;;;;9.52;2.97;;;16.30;99.90;;;;;;4945071;29;20059;-83
2022/10/06 08:02:55;;;;;;;5.65;2.85;;;16.30;99.90;;;;;;4954709;29;20417;-83
2022/10/06 08:05:22;;;;;;;4.53;2.40;;;16.30;99.90;;;;;;4951277;29;20497;-84
2022/10/06 08:07:50;;;;;;;3.97;2.83;;;16.30;99.90;;;;;;4947430;29;20107;-83
2022/10/06 08:10:17;;;;;;;7.47;2.40;;;16.40;99.90;;;;;;4940013;28;20048;-82
2022/10/06 08:12:44;;;;;;;5.97;2.97;;;16.40;99.90;;;;;;4951132;29;20074;-83
2022/10/06 08:15:17;;;;;;;8.88;3.40;;;16.40;99.90;;;;;;4950962;28;20079;-82
2022/10/06 08:17:44;;;;;;;8.25;2.92;;;16.40;99.90;;;;;;4950970;29;20083;-84
2022/10/06 08:20:11;;;;;;;8.10;2.83;;;16.40;99.90;;;;;;4946355;28;20059;-84
2022/10/06 08:22:39;;;;;;;6.15;2.70;;;16.50;99.90;;;;;;4949522;29;20059;-84
2022/10/06 08:25:08;;;;;;;7.97;2.58;;;16.50;99.90;;;;;;4951122;29;20051;-84
2022/10/06 08:27:36;;;;;;;5.80;2.97;;;16.40;99.90;;;;;;4949986;29;20674;-83
2022/10/06 08:30:07;;;;;;;8.43;3.05;;;16.50;99.90;;;;;;4951725;29;20134;-83
2022/10/06 08:32:33;;;;;;;;;;;16.50;99.90;;;;;;4947000;28;20058;-84
2022/10/06 08:35:00;;;;;;;6.78;2.72;;;16.50;99.90;;;;;;4950034;29;20313;-84
2022/10/06 08:37:27;;;;;;;3.65;2.45;;;16.60;99.90;;;;;;4945437;29;20043;-83
2022/10/06 08:39:54;;;;;;;7.95;2.70;;;16.60;99.90;;;;;;4945728;29;20051;-84
2022/10/06 08:42:35;;;;;;;8.20;2.90;;;16.80;99.90;;;;;;4937933;29;20062;-83
2022/10/06 08:45:08;;;;;;;3.50;2.35;;;16.90;99.90;;;;;;4949437;29;20051;-83
2022/10/06 08:47:35;;;;;;;6.50;2.25;;;16.90;99.90;;;;;;4948721;29;20062;-84
2022/10/06 08:50:08;;;;;;;6.25;2.25;;;17.00;99.90;;;;;;4944567;29;20472;-83
2022/10/06 08:52:45;;;;;;;5.53;2.33;;;17.10;99.90;;;;;;4941788;29;20517;-84
2022/10/06 08:55:30;;;;;;;6.65;2.30;;;17.20;99.90;;;;;;4950034;29;20048;-83
2022/10/06 08:58:37;;;;;;;7.75;2.25;;;17.20;99.90;;;;;;4943136;29;20135;-84
2022/10/06 09:01:15;;;;;;;7.80;2.30;;;17.30;99.90;;;;;;4942509;29;20052;-84
2022/10/06 09:03:48;;;;;;;5.88;1.90;;;17.40;99.90;;;;;;4950487;29;20160;-84
2022/10/06 09:06:32;;;;;;;6.65;1.80;;;17.50;99.90;;;;;;4956893;28;20139;-83
2022/10/06 09:09:32;;;;;;;6.70;2.30;;;17.50;99.90;;;;;;4955156;29;20047;-84
2022/10/06 09:12:10;;;;;;;5.95;1.80;;;17.40;99.90;;;;;;4955455;29;20071;-84
2022/10/06 09:15:02;;;;;;;8.38;2.25;;;17.50;99.90;;;;;;4955060;28;20047;-84
2022/10/06 09:17:36;;;;;;;3.58;1.88;;;17.60;99.90;;;;;;4952679;29;20103;-84
2022/10/06 09:20:19;;;;;;;6.78;1.50;;;17.60;99.90;;;;;;4946498;29;20071;-84
2022/10/06 09:22:49;;;;;;;5.22;1.45;;;17.70;99.90;;;;;;4947176;29;20520;-85
2022/10/06 09:25:27;;;;;;;8.27;1.67;;;17.70;99.90;;;;;;4957292;28;20126;-84
2022/10/06 09:27:57;;;;;;;7.18;1.50;;;17.70;99.90;;;;;;4948619;28;20126;-85
2022/10/06 09:30:24;;;;;;;4.27;1.77;;;17.80;99.90;;;;;;4950503;28;20428;-84
2022/10/06 09:33:00;;;;;;;8.30;1.70;;;17.90;99.90;;;;;;4947798;28;20302;-84
2022/10/06 09:35:29;;;;;;;6.60;1.38;;;17.90;99.90;;;;;;4949943;29;20054;-84
2022/10/06 09:38:03;;;;;;;4.78;1.30;;;17.80;99.90;;;;;;4947782;29;20054;-84
2022/10/06 09:40:36;;;;;;;6.43;1.25;;;17.90;99.90;;;;;;4948870;29;20043;-84
2022/10/06 09:43:25;;;;;;;12.52;2.58;;;17.90;99.90;;;;;;4948742;29;20134;-84
2022/10/06 09:45:53;;;;;;;7.68;1.45;;;17.90;99.90;;;;;;4944834;29;20055;-84
2022/10/06 09:48:23;;;;;;;7.65;1.50;;;18.00;99.90;;;;;;4950998;29;20143;-84
2022/10/06 09:51:14;;;;;;;10.82;1.92;;;18.00;99.90;;;;;;4954666;29;20055;-81
2022/10/06 09:53:41;;;;;;;5.40;1.23;;;18.00;99.90;;;;;;4949997;29;20114;-84
2022/10/06 09:56:17;;;;;;;10.60;1.27;;;18.00;99.90;;;;;;4953005;29;20090;-84
2022/10/06 09:58:59;;;;;;;9.50;1.33;;;18.00;99.90;;;;;;4954362;29;20055;-84
2022/10/06 10:01:28;;;;;;;5.50;1.20;;;18.00;99.90;;;;;;4954118;29;20055;-84
2022/10/06 10:03:59;;;;;;;5.65;1.00;;;18.10;99.90;;;;;;4950029;29;20070;-84
2022/10/06 10:06:46;;;;;;;6.85;1.65;;;18.10;99.90;;;;;;4950063;29;20063;-84
2022/10/06 10:09:18;;;;;;;9.80;1.35;;;18.10;99.90;;;;;;4956963;28;20089;-84
2022/10/06 10:12:28;;;;;;;8.05;1.25;;;18.10;99.90;;;;;;4944168;29;20130;-84
2022/10/06 10:15:10;;;;;;;10.05;1.10;;;18.20;99.90;;;;;;4944091;29;20633;-85
2022/10/06 10:17:46;;;;;;;5.00;0.95;;;18.20;99.90;;;;;;4955170;29;20102;-85
2022/10/06 10:20:27;;;;;;;13.20;2.47;;;18.10;99.90;;;;;;4951066;29;20056;-85
2022/10/06 10:23:04;;;;;;;11.55;1.42;;;18.10;99.90;;;;;;4947775;29;20134;-84
2022/10/06 10:25:39;;;;;;;4.35;1.13;;;18.20;99.90;;;;;;4949863;29;20058;-84
2022/10/06 10:28:21;;;;;;;6.80;1.42;;;18.20;99.90;;;;;;4954527;29;20055;-85
2022/10/06 10:31:12;;;;;;;10.43;1.30;;;18.30;99.90;;;;;;4953241;29;20496;-86
2022/10/06 10:33:47;;;;;;;6.20;1.05;;;18.30;99.90;;;;;;4953411;29;20106;-84
2022/10/06 10:36:38;;;;;;;5.75;1.05;;;18.30;99.90;;;;;;4947219;29;20055;-85
2022/10/06 10:39:13;;;;;;;5.63;1.23;;;18.40;99.90;;;;;;4947740;29;20054;-84
2022/10/06 10:41:46;;;;;;;6.35;1.30;;;18.30;99.90;;;;;;4948140;29;20074;-84
2022/10/06 10:44:32;;;;;;;8.10;1.70;;;18.20;99.90;;;;;;4952179;28;20497;-84
2022/10/06 10:47:24;;;;;;;4.57;1.40;;;18.20;99.90;;;;;;4951247;29;20130;-84
2022/10/06 10:50:39;;;;;;;7.65;1.38;;;18.20;99.90;;;;;;4957771;29;20051;-85
2022/10/06 10:53:37;;;;;;;7.22;1.08;;;18.20;99.90;;;;;;4924995;29;20087;-84
2022/10/06 10:56:10;;;;;;;8.52;1.70;;;18.20;99.90;;;;;;4929708;29;20055;-84
2022/10/06 10:58:46;;;;;;;7.22;1.20;;;18.30;99.90;;;;;;4947060;28;20405;-84
2022/10/06 11:01:21;;;;;;;8.95;1.85;;;18.30;99.90;;;;;;4956053;28;20058;-84
2022/10/06 11:03:58;;;;;;;9.18;1.52;;;18.40;99.90;;;;;;4953621;29;20533;-83
2022/10/06 11:07:19;;;;;;;5.75;1.50;;;18.40;99.90;;;;;;4955956;29;20571;-84
2022/10/06 11:10:16;;;;;;;7.47;1.55;;;18.50;99.90;;;;;;4949611;29;20138;-84
2022/10/06 11:13:06;;;;;;;4.38;1.13;;;18.50;99.90;;;;;;4952390;29;20111;-84
2022/10/06 11:15:50;;;;;;;6.57;2.30;;;18.50;99.90;;;;;;4947464;29;20061;-84
2022/10/06 11:18:25;;;;;;;5.00;1.42;;;18.40;99.90;;;;;;4945370;29;20055;-85
2022/10/06 11:21:11;;;;;;;9.23;1.50;;;18.30;99.90;;;;;;4951654;29;20082;-84
2022/10/06 11:23:57;;;;;;;6.88;1.23;;;18.10;99.90;;;;;;4947383;29;20052;-85
2022/10/06 11:26:47;;;;;;;8.30;1.48;;;18.00;99.90;;;;;;4951149;29;20051;-82
2022/10/06 11:29:22;;;;;;;16.98;2.33;;;18.10;99.90;;;;;;4954706;29;20054;-84
2022/10/06 11:32:15;;;;;;;7.10;1.77;;;18.00;99.90;;;;;;4951111;29;20047;-84
2022/10/06 11:34:43;;;;;;;10.13;2.30;;;18.00;99.90;;;;;;4947317;29;20051;-84
2022/10/06 11:37:35;;;;;;;8.55;1.75;;;18.00;99.90;;;;;;4946124;28;20135;-84
2022/10/06 11:40:15;;;;;;;9.75;1.55;;;18.00;99.90;;;;;;4942129;28;20414;-85
2022/10/06 11:42:54;;;;;;;8.82;1.90;;;18.00;99.90;;;;;;4949127;28;20056;-84
2022/10/06 11:45:38;;;;;;;6.70;1.63;;;18.00;99.90;;;;;;4943338;28;20135;-84
2022/10/06 11:48:25;;;;;;;8.75;1.70;;;18.10;99.90;;;;;;4949548;28;20110;-84
2022/10/06 11:50:56;;;;;;;6.78;1.73;;;18.10;99.90;;;;;;4942182;28;20044;-84
2022/10/06 11:53:35;;;;;;;6.47;1.60;;;18.10;99.90;;;;;;4938864;28;20138;-84
2022/10/06 11:56:17;;;;;;;6.50;1.73;;;18.10;99.90;;;;;;4948325;28;20103;-82
2022/10/06 11:58:50;;;;;;;3.88;1.40;;;18.20;99.90;;;;;;4954700;28;20509;-84
2022/10/06 12:01:29;;;;;;;5.25;1.70;;;18.20;99.90;;;;;;4954496;28;20497;-83
2022/10/06 12:04:08;;;;;;;7.72;1.45;;;18.30;99.90;;;;;;4949337;28;20111;-82
2022/10/06 12:06:43;;;;;;;6.07;1.85;;;18.30;99.90;;;;;;4950220;29;20047;-83
2022/10/06 12:09:23;;;;;;;7.25;2.20;;;18.30;99.90;;;;;;4942116;29;20054;-83
2022/10/06 12:12:13;;;;;;;7.23;2.10;;;18.30;99.90;;;;;;4958785;28;20436;-84
2022/10/06 12:14:49;;;;;;;5.15;1.67;;;18.20;99.90;;;;;;4930791;28;20122;-84
2022/10/06 12:17:43;;;;;;;6.13;1.77;;;18.30;99.90;;;;;;4950050;29;20043;-85
2022/10/06 12:20:27;;;;;;;8.90;1.60;;;18.30;99.90;;;;;;4941590;29;20058;-84
2022/10/06 12:22:57;;;;;;;7.82;1.95;;;18.30;99.90;;;;;;4937693;29;20051;-84
2022/10/06 12:25:45;;;;;;;7.28;1.80;;;18.30;99.90;;;;;;4935033;28;20135;-85
2022/10/06 12:28:36;;;;;;;7.28;1.92;;;18.30;99.90;;;;;;4938631;28;20055;-86
2022/10/06 12:31:33;;;;;;;7.60;1.88;;;18.30;99.90;;;;;;4943493;28;20055;-84
2022/10/06 12:34:01;;;;;;;6.78;2.10;;;18.40;99.90;;;;;;4939339;28;20052;-85
2022/10/06 12:36:30;;;;;;;5.13;1.65;;;18.40;99.90;;;;;;4945161;28;20426;-85
2022/10/06 12:39:04;;;;;;;10.13;1.70;;;18.50;99.90;;;;;;4943625;28;20051;-85
2022/10/06 12:41:59;;;;;;;6.28;1.52;;;18.40;99.90;;;;;;4936400;28;20058;-85
2022/10/06 12:44:31;;;;;;;6.65;1.67;;;18.40;99.90;;;;;;4941174;28;20047;-85
2022/10/06 12:47:13;;;;;;;5.13;1.63;;;18.40;99.90;;;;;;4936241;28;20055;-85
2022/10/06 12:49:47;;;;;;;3.92;2.10;;;18.40;99.90;;;;;;4947743;28;20450;-85
2022/10/06 12:52:44;;;;;;;5.97;2.28;;;18.40;99.90;;;;;;4947414;28;20058;-84
2022/10/06 12:55:38;;;;;;;5.03;2.20;;;18.50;99.90;;;;;;4938176;28;20084;-84
2022/10/06 12:58:15;;;;;;;5.63;2.10;;;18.50;99.90;;;;;;4946659;28;20048;-83
2022/10/06 13:00:42;;;;;;;3.75;1.60;;;18.50;99.90;;;;;;4949294;28;20058;-83
2022/10/06 13:03:24;;;;;;;4.55;1.83;;;18.60;99.90;;;;;;4945231;28;20055;-84
2022/10/06 13:06:10;;;;;;;8.18;2.00;;;18.50;99.90;;;;;;4947867;29;20059;-83
2022/10/06 13:08:38;;;;;;;5.55;2.00;;;18.60;99.90;;;;;;4954204;29;20055;-86
2022/10/06 13:11:21;;;;;;;3.50;1.33;;;18.60;99.90;;;;;;4948315;29;20047;-83
2022/10/06 13:13:49;;;;;;;6.80;1.90;;;18.60;99.90;;;;;;4954190;28;20059;-83
2022/10/06 13:16:25;;;;;;;6.55;1.80;;;18.60;99.90;;;;;;4949220;29;20044;-84
2022/10/06 13:18:57;;;;;;;8.52;2.03;;;18.60;99.90;;;;;;4939024;29;20052;-84
2022/10/06 13:21:25;;;;;;;6.20;2.33;;;18.70;99.90;;;;;;4944009;29;20135;-82
2022/10/06 13:23:52;;;;;;;4.78;1.88;;;18.70;99.90;;;;;;4944859;29;20498;-83
2022/10/06 13:26:23;;;;;;;8.50;2.13;;;18.70;99.90;;;;;;4947657;29;20043;-83